createdAt,value
2022-10-13T00:00:45.319Z,91.65
2022-10-13T00:01:46.871Z,91.74
2022-10-13T00:02:48.575Z,91.72
2022-10-13T00:03:51.139Z,90.91
2022-10-13T00:04:53.936Z,91.28
2022-10-13T00:05:55.468Z,91.68
2022-10-13T00:06:56.972Z,91.62
2022-10-13T00:07:58.757Z,92.06
2022-10-13T00:09:00.342Z,92.51
2022-10-13T00:10:01.928Z,92.20
2022-10-13T00:11:19.355Z,93.03
2022-10-13T00:12:21.104Z,92.33
2022-10-13T00:13:22.838Z,91.85
2022-10-13T00:14:24.366Z,91.35
2022-10-13T00:15:26.088Z,91.30
2022-10-13T00:16:29.250Z,91.26
2022-10-13T00:17:30.766Z,91.08
2022-10-13T00:18:32.489Z,91.15
2022-10-13T00:19:34.081Z,90.83
2022-10-13T00:20:36.597Z,91.00
2022-10-13T00:21:38.181Z,90.69
2022-10-13T00:22:39.735Z,90.38
2022-10-13T00:23:41.889Z,89.85
2022-10-13T00:24:43.381Z,90.24
2022-10-13T00:25:48.010Z,89.93
2022-10-13T00:26:51.056Z,89.48
2022-10-13T00:27:52.649Z,90.16
2022-10-13T00:28:55.773Z,90.02
2022-10-13T00:29:57.368Z,89.75
2022-10-13T00:30:59.377Z,90.40
2022-10-13T00:32:01.047Z,90.42
2022-10-13T00:33:02.711Z,91.21
2022-10-13T00:34:04.263Z,91.56
2022-10-13T00:35:05.952Z,91.70
2022-10-13T00:36:07.643Z,91.95
2022-10-13T00:37:09.452Z,91.34
2022-10-13T00:38:11.674Z,91.39
2022-10-13T00:39:13.309Z,91.75
2022-10-13T00:40:14.837Z,92.88
2022-10-13T00:41:16.664Z,93.23
2022-10-13T00:42:18.446Z,92.69
2022-10-13T00:43:26.438Z,91.74
2022-10-13T00:45:01.285Z,91.78
2022-10-13T00:46:02.831Z,91.67
2022-10-13T00:47:04.415Z,92.05
2022-10-13T00:48:06.219Z,92.37
2022-10-13T00:49:14.197Z,91.87
2022-10-13T00:50:20.069Z,91.30
2022-10-13T00:51:25.882Z,91.00
2022-10-13T00:52:28.430Z,90.31
2022-10-13T00:53:34.551Z,89.62
2022-10-13T00:54:36.132Z,89.66
2022-10-13T00:55:40.189Z,90.33
2022-10-13T00:56:42.988Z,90.39
2022-10-13T00:57:47.669Z,90.13
2022-10-13T00:58:49.845Z,89.84
2022-10-13T00:59:51.914Z,89.69
2022-10-13T01:00:53.893Z,88.66
2022-10-13T01:01:57.766Z,88.18
2022-10-13T01:02:59.304Z,88.75
2022-10-13T01:04:01.263Z,89.07
2022-10-13T01:05:04.122Z,88.88
2022-10-13T01:06:07.259Z,89.61
2022-10-13T01:07:09.364Z,89.31
2022-10-13T01:08:11.697Z,88.80
2022-10-13T01:09:13.562Z,88.48
2022-10-13T01:10:24.880Z,88.70
2022-10-13T01:11:42.840Z,89.49
2022-10-13T01:13:12.003Z,89.93
2022-10-13T01:14:33.577Z,90.15
2022-10-13T01:15:47.211Z,91.11
2022-10-13T01:17:15.583Z,91.51
2022-10-13T01:18:25.905Z,91.47
2022-10-13T01:19:33.285Z,91.02
2022-10-13T01:20:57.730Z,91.07
2022-10-13T01:22:32.974Z,90.81
2022-10-13T01:23:53.063Z,90.86
2022-10-13T01:25:12.253Z,91.14
2022-10-13T01:26:41.307Z,91.03
2022-10-13T01:28:01.265Z,91.02
2022-10-13T01:29:40.305Z,91.66
2022-10-13T01:31:02.164Z,90.66
2022-10-13T01:32:19.917Z,91.69
2022-10-13T01:33:35.282Z,91.93
2022-10-13T01:34:48.117Z,91.98
2022-10-13T01:36:05.423Z,92.63
2022-10-13T01:37:44.472Z,91.69
2022-10-13T01:39:14.804Z,92.22
2022-10-13T01:40:27.640Z,91.96
2022-10-13T01:41:38.381Z,92.11
2022-10-13T01:43:04.230Z,92.58
2022-10-13T01:44:23.134Z,92.97
2022-10-13T01:45:31.730Z,92.94
2022-10-13T01:46:37.521Z,92.54
2022-10-13T01:47:39.895Z,92.40
2022-10-13T01:48:44.723Z,92.50
2022-10-13T01:49:47.119Z,93.08
2022-10-13T01:50:50.511Z,93.54
2022-10-13T01:51:52.478Z,93.09
2022-10-13T01:52:54.786Z,93.39
2022-10-13T01:53:56.359Z,93.29
2022-10-13T01:54:57.888Z,93.14
2022-10-13T01:56:00.513Z,92.97
2022-10-13T01:57:02.380Z,92.96
2022-10-13T01:58:03.950Z,93.06
2022-10-13T01:59:10.420Z,92.80
2022-10-13T02:00:18.802Z,92.85
2022-10-13T02:01:30.253Z,91.62
2022-10-13T02:03:09.653Z,91.19
2022-10-13T02:04:36.865Z,90.42
2022-10-13T02:05:57.691Z,89.84
2022-10-13T02:07:11.064Z,89.72
2022-10-13T02:08:37.154Z,89.44
2022-10-13T02:09:47.618Z,89.76
2022-10-13T02:11:13.935Z,89.62
2022-10-13T02:12:22.979Z,90.29
2022-10-13T02:13:28.029Z,90.43
2022-10-13T02:14:33.101Z,90.32
2022-10-13T02:15:43.610Z,90.28
2022-10-13T02:16:47.141Z,90.98
2022-10-13T02:17:49.753Z,91.38
2022-10-13T02:18:51.636Z,90.86
2022-10-13T02:19:54.100Z,91.07
2022-10-13T02:20:56.111Z,91.29
2022-10-13T02:21:58.765Z,90.74
2022-10-13T02:23:04.911Z,91.20
2022-10-13T02:24:07.075Z,91.68
2022-10-13T02:25:09.259Z,91.73
2022-10-13T02:26:11.331Z,91.65
2022-10-13T02:27:13.475Z,92.33
2022-10-13T02:28:15.959Z,93.01
2022-10-13T02:29:18.958Z,93.03
2022-10-13T02:30:23.974Z,92.92
2022-10-13T02:31:25.523Z,92.52
2022-10-13T02:32:27.242Z,92.42
2022-10-13T02:33:29.062Z,92.31
2022-10-13T02:34:30.723Z,92.46
2022-10-13T02:35:33.060Z,92.43
2022-10-13T02:36:34.879Z,92.53
2022-10-13T02:37:36.475Z,92.69
2022-10-13T02:38:38.274Z,92.68
2022-10-13T02:39:40.045Z,92.98
2022-10-13T02:40:41.586Z,93.17
2022-10-13T02:41:43.129Z,93.18
2022-10-13T02:42:44.928Z,93.16
2022-10-13T02:43:46.475Z,93.23
2022-10-13T02:44:48.013Z,93.01
2022-10-13T02:45:49.533Z,93.03
2022-10-13T02:46:51.038Z,93.33
2022-10-13T02:47:52.789Z,92.90
2022-10-13T02:48:54.341Z,93.35
2022-10-13T02:49:55.990Z,92.71
2022-10-13T02:50:57.621Z,93.57
2022-10-13T02:51:59.137Z,94.18
2022-10-13T02:53:00.765Z,94.28
2022-10-13T02:54:02.281Z,94.06
2022-10-13T02:55:04.710Z,94.07
2022-10-13T02:56:06.602Z,94.01
2022-10-13T02:57:08.142Z,94.45
2022-10-13T02:58:09.731Z,94.44
2022-10-13T02:59:12.126Z,94.25
2022-10-13T03:00:14.595Z,94.48
2022-10-13T03:01:16.580Z,95.27
2022-10-13T03:02:19.207Z,95.33
2022-10-13T03:03:21.024Z,95.98
2022-10-13T03:04:22.582Z,96.49
2022-10-13T03:05:24.149Z,96.87
2022-10-13T03:06:25.661Z,96.82
2022-10-13T03:07:27.343Z,96.87
2022-10-13T03:08:29.008Z,96.34
2022-10-13T03:09:30.681Z,96.57
2022-10-13T03:10:32.598Z,96.67
2022-10-13T03:11:34.278Z,96.46
2022-10-13T03:12:35.817Z,97.47
2022-10-13T03:13:37.721Z,96.38
2022-10-13T03:14:39.269Z,97.05
2022-10-13T03:15:40.805Z,96.65
2022-10-13T03:16:42.441Z,96.82
2022-10-13T03:17:44.098Z,97.26
2022-10-13T03:18:45.679Z,96.86
2022-10-13T03:19:47.197Z,97.18
2022-10-13T03:21:00.588Z,97.23
2022-10-13T03:22:02.107Z,97.62
2022-10-13T03:23:03.744Z,97.38
2022-10-13T03:24:06.234Z,96.83
2022-10-13T03:25:08.497Z,97.11
2022-10-13T03:26:10.357Z,97.21
2022-10-13T03:27:12.238Z,97.71
2022-10-13T03:28:14.127Z,98.03
2022-10-13T03:29:17.203Z,98.10
2022-10-13T03:30:19.286Z,97.46
2022-10-13T03:31:20.864Z,96.96
2022-10-13T03:32:22.707Z,96.68
2022-10-13T03:33:24.425Z,95.77
2022-10-13T03:34:25.979Z,95.84
2022-10-13T03:35:27.488Z,95.22
2022-10-13T03:36:29.084Z,95.07
2022-10-13T03:37:30.787Z,94.84
2022-10-13T03:38:34.472Z,95.20
2022-10-13T03:39:35.985Z,95.16
2022-10-13T03:40:37.522Z,95.18
2022-10-13T03:41:40.689Z,94.65
2022-10-13T03:42:42.392Z,94.51
2022-10-13T03:43:45.305Z,94.56
2022-10-13T03:44:50.387Z,94.14
2022-10-13T03:45:59.989Z,94.11
2022-10-13T03:47:01.619Z,93.73
2022-10-13T03:48:03.337Z,94.02
2022-10-13T03:49:05.135Z,93.44
2022-10-13T03:50:07.435Z,93.27
2022-10-13T03:51:15.149Z,93.09
2022-10-13T03:52:16.863Z,93.04
2022-10-13T03:53:19.159Z,93.03
2022-10-13T03:54:20.683Z,92.44
2022-10-13T03:55:22.233Z,93.00
2022-10-13T03:56:26.669Z,92.67
2022-10-13T03:57:28.584Z,92.53
2022-10-13T03:58:30.454Z,91.97
2022-10-13T03:59:36.601Z,91.88
2022-10-13T04:00:38.900Z,92.26
2022-10-13T04:01:40.747Z,92.74
2022-10-13T04:02:42.647Z,92.25
2022-10-13T04:03:44.175Z,92.60
2022-10-13T04:04:45.679Z,92.19
2022-10-13T04:05:47.799Z,91.78
2022-10-13T04:06:49.325Z,91.66
2022-10-13T04:07:50.843Z,92.37
2022-10-13T04:08:52.761Z,92.39
2022-10-13T04:09:54.286Z,92.29
2022-10-13T04:11:04.190Z,91.83
2022-10-13T04:12:06.039Z,91.87
2022-10-13T04:13:08.296Z,91.83
2022-10-13T04:14:09.991Z,92.22
2022-10-13T04:15:11.613Z,93.00
2022-10-13T04:16:16.239Z,92.30
2022-10-13T04:17:17.819Z,91.95
2022-10-13T04:18:19.339Z,91.76
2022-10-13T04:19:20.881Z,91.81
2022-10-13T04:20:22.525Z,91.18
2022-10-13T04:21:25.237Z,91.08
2022-10-13T04:22:26.751Z,91.15
2022-10-13T04:23:28.334Z,91.44
2022-10-13T04:24:29.897Z,91.48
2022-10-13T04:25:31.445Z,91.39
2022-10-13T04:26:35.558Z,91.34
2022-10-13T04:27:39.216Z,91.59
2022-10-13T04:28:40.809Z,91.59
2022-10-13T04:29:42.595Z,91.45
2022-10-13T04:30:48.543Z,90.60
2022-10-13T04:31:50.986Z,89.71
2022-10-13T04:32:52.567Z,89.67
2022-10-13T04:33:54.133Z,89.74
2022-10-13T04:34:55.648Z,89.35
2022-10-13T04:35:57.412Z,89.45
2022-10-13T04:36:58.965Z,93.85
2022-10-13T04:38:01.114Z,93.52
2022-10-13T04:39:02.747Z,92.07
2022-10-13T04:40:04.682Z,90.24
2022-10-13T04:41:07.390Z,88.18
2022-10-13T04:42:08.929Z,87.92
2022-10-13T04:43:10.472Z,87.45
2022-10-13T04:44:12.035Z,87.24
2022-10-13T04:45:13.565Z,86.58
2022-10-13T04:46:18.996Z,86.99
2022-10-13T04:47:20.538Z,86.61
2022-10-13T04:48:22.076Z,86.67
2022-10-13T04:49:24.464Z,87.19
2022-10-13T04:50:26.009Z,87.30
2022-10-13T04:51:27.620Z,87.97
2022-10-13T04:52:29.155Z,88.35
2022-10-13T04:53:31.753Z,88.14
2022-10-13T04:54:33.277Z,88.23
2022-10-13T04:55:38.070Z,87.90
2022-10-13T04:56:39.634Z,88.35
2022-10-13T04:57:41.263Z,88.94
2022-10-13T04:58:45.158Z,89.14
2022-10-13T04:59:47.093Z,89.16
2022-10-13T05:00:48.671Z,88.59
2022-10-13T05:01:50.331Z,88.56
2022-10-13T05:02:52.021Z,89.01
2022-10-13T05:03:55.007Z,89.06
2022-10-13T05:04:56.519Z,88.95
2022-10-13T05:05:58.128Z,89.33
2022-10-13T05:07:17.041Z,89.63
2022-10-13T05:08:20.454Z,89.72
2022-10-13T05:09:22.565Z,90.12
2022-10-13T05:10:24.119Z,89.91
2022-10-13T05:11:27.208Z,90.09
2022-10-13T05:12:28.869Z,89.82
2022-10-13T05:13:30.558Z,90.12
2022-10-13T05:14:33.366Z,89.87
2022-10-13T05:15:35.043Z,89.63
2022-10-13T05:16:36.606Z,89.10
2022-10-13T05:17:38.140Z,89.03
2022-10-13T05:18:40.008Z,88.76
2022-10-13T05:19:41.557Z,89.30
2022-10-13T05:20:43.063Z,89.69
2022-10-13T05:21:44.788Z,89.70
2022-10-13T05:22:46.478Z,89.42
2022-10-13T05:23:48.439Z,89.82
2022-10-13T05:24:49.966Z,89.20
2022-10-13T05:25:51.485Z,89.29
2022-10-13T05:26:53.035Z,88.74
2022-10-13T05:27:54.844Z,88.98
2022-10-13T05:28:57.117Z,89.12
2022-10-13T05:29:58.621Z,90.04
2022-10-13T05:31:10.964Z,89.87
2022-10-13T05:32:12.675Z,90.00
2022-10-13T05:33:14.225Z,89.01
2022-10-13T05:34:15.750Z,88.88
2022-10-13T05:35:17.269Z,88.93
2022-10-13T05:36:22.043Z,89.35
2022-10-13T05:37:23.614Z,89.18
2022-10-13T05:38:26.170Z,88.98
2022-10-13T05:39:28.268Z,88.62
2022-10-13T05:40:32.344Z,88.77
2022-10-13T05:41:33.903Z,87.84
2022-10-13T05:42:36.120Z,87.52
2022-10-13T05:43:39.404Z,86.83
2022-10-13T05:44:40.928Z,86.22
2022-10-13T05:45:42.476Z,86.30
2022-10-13T05:46:44.503Z,85.83
2022-10-13T05:47:46.067Z,85.05
2022-10-13T05:48:47.748Z,84.64
2022-10-13T05:49:49.309Z,85.22
2022-10-13T05:50:51.099Z,85.23
2022-10-13T05:51:57.210Z,85.20
2022-10-13T05:52:58.742Z,85.45
2022-10-13T05:54:25.571Z,86.25
2022-10-13T05:55:27.131Z,86.54
2022-10-13T05:56:32.995Z,86.99
2022-10-13T05:57:41.436Z,86.18
2022-10-13T05:58:48.336Z,85.79
2022-10-13T06:00:10.277Z,85.86
2022-10-13T06:01:16.451Z,85.73
2022-10-13T06:02:22.504Z,85.55
2022-10-13T06:03:24.268Z,85.39
2022-10-13T06:04:38.851Z,84.85
2022-10-13T06:05:43.151Z,84.61
2022-10-13T06:06:45.335Z,84.65
2022-10-13T06:07:48.182Z,84.18
2022-10-13T06:08:50.947Z,83.72
2022-10-13T06:09:52.680Z,84.45
2022-10-13T06:10:54.253Z,84.52
2022-10-13T06:11:55.805Z,84.85
2022-10-13T06:12:57.351Z,84.56
2022-10-13T06:13:58.945Z,84.41
2022-10-13T06:15:00.471Z,84.95
2022-10-13T06:16:02.189Z,84.90
2022-10-13T06:17:04.125Z,84.78
2022-10-13T06:18:10.447Z,84.91
2022-10-13T06:19:11.954Z,85.07
2022-10-13T06:20:13.496Z,85.34
2022-10-13T06:21:15.028Z,85.59
2022-10-13T06:22:16.650Z,85.50
2022-10-13T06:23:18.293Z,85.82
2022-10-13T06:24:19.853Z,85.90
2022-10-13T06:25:21.431Z,85.53
2022-10-13T06:26:23.019Z,85.22
2022-10-13T06:27:24.675Z,84.87
2022-10-13T06:28:27.352Z,84.75
2022-10-13T06:29:28.954Z,85.52
2022-10-13T06:30:30.659Z,84.73
2022-10-13T06:31:32.249Z,85.63
2022-10-13T06:32:34.233Z,85.50
2022-10-13T06:33:35.795Z,85.86
2022-10-13T06:34:37.347Z,86.04
2022-10-13T06:35:38.871Z,86.25
2022-10-13T06:36:41.789Z,86.67
2022-10-13T06:37:43.702Z,86.15
2022-10-13T06:38:45.317Z,86.56
2022-10-13T06:39:46.927Z,86.09
2022-10-13T06:40:48.800Z,85.76
2022-10-13T06:41:50.955Z,85.30
2022-10-13T06:42:52.582Z,85.37
2022-10-13T06:43:54.305Z,85.52
2022-10-13T06:44:55.937Z,84.86
2022-10-13T06:45:59.562Z,84.99
2022-10-13T06:47:03.080Z,85.10
2022-10-13T06:48:04.967Z,84.18
2022-10-13T06:49:06.573Z,84.39
2022-10-13T06:50:08.469Z,83.69
2022-10-13T06:51:11.944Z,83.62
2022-10-13T06:52:13.475Z,83.66
2022-10-13T06:53:15.058Z,83.03
2022-10-13T06:54:16.692Z,83.20
2022-10-13T06:55:18.316Z,83.22
2022-10-13T06:56:19.887Z,83.08
2022-10-13T06:57:21.445Z,83.68
2022-10-13T06:58:22.984Z,83.51
2022-10-13T06:59:26.452Z,83.44
2022-10-13T07:00:30.254Z,83.95
2022-10-13T07:01:31.833Z,84.21
2022-10-13T07:02:33.397Z,84.59
2022-10-13T07:03:35.967Z,84.75
2022-10-13T07:04:37.546Z,84.96
2022-10-13T07:05:39.051Z,85.00
2022-10-13T07:06:41.100Z,85.29
2022-10-13T07:07:42.877Z,84.87
2022-10-13T07:08:44.509Z,84.85
2022-10-13T07:09:46.080Z,84.92
2022-10-13T07:10:47.945Z,85.33
2022-10-13T07:11:50.238Z,84.64
2022-10-13T07:12:51.764Z,84.61
2022-10-13T07:13:54.095Z,84.47
2022-10-13T07:14:55.611Z,85.07
2022-10-13T07:15:57.123Z,84.86
2022-10-13T07:16:58.711Z,84.19
2022-10-13T07:18:00.271Z,84.55
2022-10-13T07:19:01.794Z,84.75
2022-10-13T07:20:07.226Z,84.78
2022-10-13T07:21:09.714Z,85.15
2022-10-13T07:22:11.243Z,85.25
2022-10-13T07:23:12.813Z,85.26
2022-10-13T07:24:14.354Z,85.80
2022-10-13T07:25:16.240Z,85.77
2022-10-13T07:26:17.841Z,86.45
2022-10-13T07:27:19.535Z,86.09
2022-10-13T07:28:21.440Z,85.54
2022-10-13T07:29:23.091Z,85.06
2022-10-13T07:30:24.716Z,85.00
2022-10-13T07:31:26.825Z,85.07
2022-10-13T07:32:28.342Z,84.04
2022-10-13T07:33:30.153Z,84.21
2022-10-13T07:34:31.704Z,83.96
2022-10-13T07:35:33.551Z,83.01
2022-10-13T07:36:35.610Z,82.94
2022-10-13T07:37:38.611Z,83.10
2022-10-13T07:38:40.400Z,83.45
2022-10-13T07:39:41.957Z,82.78
2022-10-13T07:40:43.471Z,84.17
2022-10-13T07:41:48.769Z,84.72
2022-10-13T07:42:52.543Z,85.10
2022-10-13T07:43:57.672Z,86.19
2022-10-13T07:44:59.285Z,85.88
2022-10-13T07:46:04.720Z,86.18
2022-10-13T07:47:06.236Z,86.49
2022-10-13T07:48:07.805Z,86.17
2022-10-13T07:49:12.370Z,86.76
2022-10-13T07:50:17.068Z,86.49
2022-10-13T07:51:18.640Z,86.58
2022-10-13T07:52:20.540Z,86.93
2022-10-13T07:53:22.526Z,86.42
2022-10-13T07:54:25.183Z,86.48
2022-10-13T07:55:28.939Z,84.97
2022-10-13T07:56:30.564Z,85.14
2022-10-13T07:57:32.193Z,85.04
2022-10-13T07:58:36.721Z,84.40
2022-10-13T07:59:38.498Z,84.69
2022-10-13T08:00:40.072Z,84.58
2022-10-13T08:01:41.684Z,84.09
2022-10-13T08:02:43.316Z,83.94
2022-10-13T08:03:49.146Z,83.75
2022-10-13T08:04:52.212Z,84.02
2022-10-13T08:05:54.427Z,83.87
2022-10-13T08:06:55.981Z,84.03
2022-10-13T08:07:58.570Z,84.40
2022-10-13T08:09:00.673Z,85.08
2022-10-13T08:10:02.349Z,85.49
2022-10-13T08:11:06.776Z,85.78
2022-10-13T08:12:08.589Z,84.31
2022-10-13T08:13:11.262Z,84.55
2022-10-13T08:14:13.460Z,84.30
2022-10-13T08:15:18.971Z,84.10
2022-10-13T08:16:20.877Z,83.17
2022-10-13T08:17:22.711Z,83.02
2022-10-13T08:18:24.403Z,83.31
2022-10-13T08:19:26.595Z,83.01
2022-10-13T08:20:41.007Z,83.50
2022-10-13T08:22:01.794Z,84.25
2022-10-13T08:23:03.444Z,84.01
2022-10-13T08:24:06.787Z,84.41
2022-10-13T08:25:08.750Z,84.01
2022-10-13T08:26:25.988Z,84.09
2022-10-13T08:27:42.231Z,83.86
2022-10-13T08:29:09.581Z,83.65
2022-10-13T08:30:12.377Z,82.80
2022-10-13T08:31:14.158Z,83.94
2022-10-13T08:32:16.705Z,83.75
2022-10-13T08:33:18.399Z,85.05
2022-10-13T08:34:20.770Z,84.70
2022-10-13T08:35:22.313Z,84.37
2022-10-13T08:36:24.970Z,83.50
2022-10-13T08:37:26.477Z,83.45
2022-10-13T08:38:28.140Z,84.73
2022-10-13T08:39:30.099Z,84.34
2022-10-13T08:40:31.950Z,84.19
2022-10-13T08:41:39.154Z,84.73
2022-10-13T08:42:44.012Z,84.56
2022-10-13T08:44:33.657Z,84.63
2022-10-13T08:47:00.646Z,84.18
2022-10-13T08:48:07.526Z,84.00
2022-10-13T08:49:09.159Z,83.56
2022-10-13T08:50:15.167Z,83.93
2022-10-13T08:51:17.274Z,83.32
2022-10-13T08:52:23.495Z,83.30
2022-10-13T08:53:33.210Z,83.13
2022-10-13T08:54:34.787Z,82.73
2022-10-13T08:55:48.684Z,83.48
2022-10-13T08:56:51.191Z,83.80
2022-10-13T08:57:52.964Z,84.36
2022-10-13T08:58:56.851Z,83.83
2022-10-13T08:59:58.493Z,83.85
2022-10-13T09:01:08.802Z,83.77
2022-10-13T09:02:22.221Z,84.09
2022-10-13T09:03:27.552Z,84.31
2022-10-13T09:04:36.331Z,83.33
2022-10-13T09:05:50.147Z,83.03
2022-10-13T09:07:20.847Z,82.01
2022-10-13T09:08:25.175Z,81.43
2022-10-13T09:09:26.701Z,82.11
2022-10-13T09:10:28.231Z,82.51
2022-10-13T09:11:33.991Z,82.80
2022-10-13T09:12:35.523Z,83.23
2022-10-13T09:13:37.177Z,83.79
2022-10-13T09:14:41.090Z,84.10
2022-10-13T09:15:47.418Z,83.28
2022-10-13T09:16:50.680Z,83.73
2022-10-13T09:18:13.473Z,80.76
2022-10-13T09:19:27.328Z,80.37
2022-10-13T09:20:28.900Z,79.88
2022-10-13T09:21:30.664Z,80.64
2022-10-13T09:22:37.582Z,80.70
2022-10-13T09:23:41.807Z,80.32
2022-10-13T09:24:43.675Z,79.00
2022-10-13T09:25:50.577Z,79.32
2022-10-13T09:27:04.899Z,80.38
2022-10-13T09:28:30.630Z,80.25
2022-10-13T09:29:32.401Z,80.72
2022-10-13T09:30:44.853Z,80.90
2022-10-13T09:31:46.730Z,80.09
2022-10-13T09:32:48.345Z,80.75
2022-10-13T09:34:00.772Z,80.79
2022-10-13T09:35:21.739Z,80.92
2022-10-13T09:36:23.283Z,81.35
2022-10-13T09:37:26.309Z,81.54
2022-10-13T09:38:28.980Z,80.97
2022-10-13T09:39:32.557Z,80.00
2022-10-13T09:40:34.383Z,78.88
2022-10-13T09:41:36.327Z,79.74
2022-10-13T09:42:38.502Z,80.08
2022-10-13T09:43:45.909Z,81.29
2022-10-13T09:44:56.617Z,80.94
2022-10-13T09:45:59.432Z,80.04
2022-10-13T09:47:04.339Z,79.22
2022-10-13T09:48:14.643Z,79.56
2022-10-13T09:49:31.739Z,78.58
2022-10-13T09:50:35.848Z,77.87
2022-10-13T09:51:44.823Z,78.06
2022-10-13T09:52:47.707Z,77.15
2022-10-13T09:53:49.414Z,77.82
2022-10-13T09:54:58.522Z,78.53
2022-10-13T09:56:26.714Z,78.14
2022-10-13T09:57:34.412Z,78.99
2022-10-13T09:58:40.967Z,80.32
2022-10-13T10:00:04.497Z,79.90
2022-10-13T10:01:07.293Z,78.41
2022-10-13T10:02:59.918Z,77.56
2022-10-13T10:04:06.491Z,78.27
2022-10-13T10:05:23.608Z,79.17
2022-10-13T10:06:27.718Z,78.69
2022-10-13T10:07:32.910Z,77.78
2022-10-13T10:09:04.838Z,78.76
2022-10-13T10:10:18.870Z,78.83
2022-10-13T10:11:29.354Z,78.50
2022-10-13T10:12:34.782Z,77.32
2022-10-13T10:13:36.737Z,76.50
2022-10-13T10:14:38.747Z,76.50
2022-10-13T10:15:58.738Z,77.98
2022-10-13T10:17:09.583Z,75.84
2022-10-13T10:18:25.299Z,75.96
2022-10-13T10:19:39.424Z,74.74
2022-10-13T10:20:45.039Z,74.15
2022-10-13T10:22:10.591Z,72.70
2022-10-13T10:23:15.189Z,72.40
2022-10-13T10:24:34.351Z,71.24
2022-10-13T10:25:49.420Z,71.31
2022-10-13T10:27:08.036Z,71.31
2022-10-13T10:28:43.024Z,71.80
2022-10-13T10:29:58.516Z,71.51
2022-10-13T10:31:25.003Z,70.97
2022-10-13T10:32:35.568Z,70.63
2022-10-13T10:34:15.358Z,70.63
2022-10-13T10:35:32.290Z,71.23
2022-10-13T10:36:53.393Z,72.89
2022-10-13T10:38:03.780Z,72.91
2022-10-13T10:39:17.495Z,72.40
2022-10-13T10:40:56.255Z,71.72
2022-10-13T10:42:04.217Z,72.03
2022-10-13T10:43:18.183Z,72.71
2022-10-13T10:44:35.314Z,71.03
2022-10-13T10:45:39.559Z,71.15
2022-10-13T10:46:46.976Z,70.94
2022-10-13T10:47:53.918Z,71.08
2022-10-13T10:49:02.055Z,71.80
2022-10-13T10:50:07.653Z,72.64
2022-10-13T10:51:11.676Z,72.36
2022-10-13T10:52:24.792Z,72.36
2022-10-13T10:53:55.193Z,71.60
2022-10-13T10:55:37.471Z,70.99
2022-10-13T10:56:54.359Z,71.51
2022-10-13T10:58:09.177Z,71.67
2022-10-13T10:59:22.664Z,72.30
2022-10-13T11:00:24.809Z,71.68
2022-10-13T11:01:26.404Z,71.67
2022-10-13T11:02:55.836Z,71.42
2022-10-13T11:04:13.445Z,70.38
2022-10-13T11:05:16.657Z,69.71
2022-10-13T11:06:18.115Z,69.48
2022-10-13T11:07:22.481Z,70.03
2022-10-13T11:08:38.791Z,70.27
2022-10-13T11:09:43.310Z,70.30
2022-10-13T11:10:44.815Z,70.02
2022-10-13T11:11:46.421Z,69.49
2022-10-13T11:13:18.428Z,69.67
2022-10-13T11:14:30.480Z,69.54
2022-10-13T11:15:43.497Z,69.37
2022-10-13T11:17:24.020Z,69.65
2022-10-13T11:18:59.303Z,70.08
2022-10-13T11:20:00.948Z,68.98
2022-10-13T11:21:02.459Z,67.54
2022-10-13T11:22:03.908Z,66.70
2022-10-13T11:23:05.399Z,66.35
2022-10-13T11:24:36.327Z,65.19
2022-10-13T11:25:46.309Z,65.06
2022-10-13T11:26:47.905Z,65.01
2022-10-13T11:27:49.489Z,65.32
2022-10-13T11:28:51.125Z,64.71
2022-10-13T11:29:58.671Z,64.02
2022-10-13T11:31:15.184Z,64.63
2022-10-13T11:32:26.112Z,65.60
2022-10-13T11:33:34.850Z,65.87
2022-10-13T11:34:37.002Z,65.34
2022-10-13T11:35:38.678Z,65.90
2022-10-13T11:36:55.591Z,65.17
2022-10-13T11:38:07.797Z,66.12
2022-10-13T11:40:56.803Z,67.55
2022-10-13T11:42:19.689Z,67.68
2022-10-13T11:43:40.736Z,68.25
2022-10-13T11:45:17.566Z,69.81
2022-10-13T11:46:31.219Z,69.32
2022-10-13T11:48:03.690Z,71.08
2022-10-13T11:49:20.557Z,70.71
2022-10-13T11:50:51.243Z,69.83
2022-10-13T11:52:25.460Z,69.78
2022-10-13T11:53:33.942Z,68.72
2022-10-13T11:55:03.455Z,68.53
2022-10-13T11:56:05.094Z,67.86
2022-10-13T11:57:24.467Z,67.40
2022-10-13T11:58:28.774Z,67.28
2022-10-13T11:59:36.721Z,68.36
2022-10-13T12:00:38.337Z,68.56
2022-10-13T12:01:44.645Z,68.56
2022-10-13T12:02:53.513Z,68.26
2022-10-13T12:03:55.151Z,68.35
2022-10-13T12:05:19.765Z,69.18
2022-10-13T12:06:25.120Z,68.98
2022-10-13T12:07:32.101Z,69.92
2022-10-13T12:08:36.064Z,69.47
2022-10-13T12:09:49.285Z,69.90
2022-10-13T12:10:57.373Z,69.02
2022-10-13T12:12:04.868Z,68.78
2022-10-13T12:13:07.415Z,68.15
2022-10-13T12:14:24.393Z,68.76
2022-10-13T12:15:37.942Z,69.28
2022-10-13T12:16:52.526Z,68.30
2022-10-13T12:17:54.076Z,68.55
2022-10-13T12:19:08.194Z,68.19
2022-10-13T12:20:26.363Z,68.34
2022-10-13T12:21:27.900Z,70.66
2022-10-13T12:22:30.161Z,72.18
2022-10-13T12:23:33.158Z,71.90
2022-10-13T12:24:34.686Z,66.93
2022-10-13T12:25:36.297Z,67.32
2022-10-13T12:26:37.923Z,68.02
2022-10-13T12:27:47.782Z,68.72
2022-10-13T12:28:56.756Z,68.58
2022-10-13T12:30:02.790Z,68.83
2022-10-13T12:31:04.700Z,66.81
2022-10-13T12:32:24.493Z,66.03
2022-10-13T12:33:30.555Z,67.00
2022-10-13T12:34:35.104Z,67.34
2022-10-13T12:35:36.680Z,67.99
2022-10-13T12:36:38.288Z,67.61
2022-10-13T12:37:39.921Z,67.76
2022-10-13T12:38:47.134Z,65.45
2022-10-13T12:39:49.410Z,67.34
2022-10-13T12:40:53.538Z,66.73
2022-10-13T12:41:56.069Z,66.14
2022-10-13T12:42:58.164Z,67.01
2022-10-13T12:44:03.884Z,65.49
2022-10-13T12:45:20.342Z,65.11
2022-10-13T12:46:55.568Z,65.93
2022-10-13T12:47:57.132Z,67.52
2022-10-13T12:49:08.236Z,66.86
2022-10-13T12:50:25.666Z,66.58
2022-10-13T12:51:28.087Z,66.73
2022-10-13T12:52:30.427Z,66.28
2022-10-13T12:53:32.701Z,65.90
2022-10-13T12:54:37.969Z,66.25
2022-10-13T12:55:51.553Z,67.49
2022-10-13T12:56:56.772Z,67.37
2022-10-13T12:57:58.474Z,67.10
2022-10-13T12:59:00.716Z,68.09
2022-10-13T13:00:19.791Z,67.41
2022-10-13T13:01:28.557Z,67.39
2022-10-13T13:02:33.132Z,66.08
2022-10-13T13:03:37.215Z,64.95
2022-10-13T13:04:42.381Z,65.73
2022-10-13T13:05:50.780Z,64.91
2022-10-13T13:06:54.365Z,65.74
2022-10-13T13:07:55.886Z,64.34
2022-10-13T13:09:12.625Z,65.21
2022-10-13T13:10:17.943Z,65.37
2022-10-13T13:11:39.121Z,65.98
2022-10-13T13:12:41.725Z,66.17
2022-10-13T13:13:43.272Z,66.56
2022-10-13T13:14:50.982Z,66.63
2022-10-13T13:15:52.694Z,67.14
2022-10-13T13:17:09.220Z,66.89
2022-10-13T13:18:32.007Z,67.20
2022-10-13T13:19:35.305Z,66.96
2022-10-13T13:20:37.868Z,68.49
2022-10-13T13:21:39.398Z,68.46
2022-10-13T13:22:40.940Z,68.34
2022-10-13T13:23:50.966Z,66.98
2022-10-13T13:24:55.547Z,66.08
2022-10-13T13:26:08.013Z,66.04
2022-10-13T13:27:40.191Z,65.83
2022-10-13T13:28:50.639Z,66.41
2022-10-13T13:29:55.926Z,66.38
2022-10-13T13:30:58.320Z,65.91
2022-10-13T13:31:59.834Z,65.06
2022-10-13T13:33:01.374Z,66.36
2022-10-13T13:34:02.907Z,66.99
2022-10-13T13:35:05.754Z,67.23
2022-10-13T13:36:19.580Z,66.96
2022-10-13T13:37:31.705Z,67.01
2022-10-13T13:38:33.224Z,66.19
2022-10-13T13:39:34.749Z,65.98
2022-10-13T13:40:36.304Z,66.55
2022-10-13T13:41:37.813Z,66.32
2022-10-13T13:42:39.391Z,66.44
2022-10-13T13:43:41.109Z,67.14
2022-10-13T13:44:42.701Z,67.16
2022-10-13T13:45:44.401Z,66.72
2022-10-13T13:46:45.918Z,66.46
2022-10-13T13:47:48.035Z,66.44
2022-10-13T13:48:50.050Z,67.63
2022-10-13T13:49:56.362Z,67.40
2022-10-13T13:50:57.995Z,67.26
2022-10-13T13:51:59.489Z,67.01
2022-10-13T13:53:01.477Z,66.77
2022-10-13T13:54:03.659Z,66.72
2022-10-13T13:55:06.489Z,66.58
2022-10-13T13:56:13.640Z,66.49
2022-10-13T13:57:15.317Z,66.72
2022-10-13T13:58:16.830Z,66.68
2022-10-13T13:59:18.343Z,66.21
2022-10-13T14:00:20.275Z,65.73
2022-10-13T14:01:22.806Z,65.52
2022-10-13T14:02:24.451Z,65.23
2022-10-13T14:03:26.030Z,65.93
2022-10-13T14:04:27.616Z,65.93
2022-10-13T14:05:29.129Z,66.72
2022-10-13T14:06:31.482Z,67.19
2022-10-13T14:07:33.278Z,66.92
2022-10-13T14:08:42.027Z,66.23
2022-10-13T14:09:44.377Z,65.92
2022-10-13T14:10:45.913Z,65.51
2022-10-13T14:11:47.578Z,65.01
2022-10-13T14:12:49.107Z,64.94
2022-10-13T14:13:50.690Z,64.96